createdAt,value
2018-07-31T00:01:18.529Z,149312.55
2018-07-31T00:03:49.851Z,149298.78
2018-07-31T00:06:24.769Z,149293.80
2018-07-31T00:08:56.996Z,149301.28
2018-07-31T00:11:28.456Z,149296.28
2018-07-31T00:13:59.644Z,149292.50
2018-07-31T00:16:30.846Z,149300.03
2018-07-31T00:19:01.747Z,149305.02
2018-07-31T00:21:33.599Z,149298.78
2018-07-31T00:24:04.827Z,149297.53
2018-07-31T00:26:36.213Z,149302.52
2018-07-31T00:29:07.669Z,149292.50
2018-07-31T00:31:38.808Z,149262.56
2018-07-31T00:34:10.191Z,149253.84
2018-07-31T00:36:43.006Z,149250.09
2018-07-31T00:39:14.182Z,149251.34
2018-07-31T00:41:45.143Z,149235.09
2018-07-31T00:44:16.424Z,149191.41
2018-07-31T00:46:47.396Z,149171.47
2018-07-31T00:49:20.124Z,149161.48
2018-07-31T00:51:53.091Z,149142.75
2018-07-31T00:54:24.301Z,149121.56
2018-07-31T00:56:56.210Z,149151.52
2018-07-31T00:59:27.312Z,149161.48
2018-07-31T01:01:58.320Z,149147.73
2018-07-31T01:04:29.491Z,149152.77
2018-07-31T01:07:00.571Z,149150.22
2018-07-31T01:09:31.583Z,149175.20
2018-07-31T01:12:02.650Z,149182.69
2018-07-31T01:14:33.809Z,149173.95
2018-07-31T01:17:05.248Z,149168.97
2018-07-31T01:19:36.205Z,149151.52
2018-07-31T01:22:08.253Z,149130.28
2018-07-31T01:24:39.128Z,149122.81
2018-07-31T01:27:10.400Z,149136.52
2018-07-31T01:29:41.489Z,149141.50
2018-07-31T01:32:13.452Z,149130.28
2018-07-31T01:34:44.372Z,149111.53
2018-07-31T01:37:15.307Z,149122.81
2018-07-31T01:39:46.317Z,149122.81
2018-07-31T01:42:17.568Z,149142.75
2018-07-31T01:44:48.745Z,149176.45
2018-07-31T01:47:19.919Z,149196.39
2018-07-31T01:49:51.028Z,149213.89
2018-07-31T01:52:22.187Z,149201.44
2018-07-31T01:54:53.514Z,149211.41
2018-07-31T01:57:24.707Z,149212.66
2018-07-31T01:59:55.673Z,149216.39
2018-07-31T02:02:28.613Z,149216.39
2018-07-31T02:04:59.493Z,149216.39
2018-07-31T02:07:30.709Z,149212.66
2018-07-31T02:10:01.868Z,149213.89
2018-07-31T02:12:32.958Z,149218.88
2018-07-31T02:15:04.117Z,149217.63
2018-07-31T02:17:35.253Z,149196.39
2018-07-31T02:20:06.743Z,149181.44
2018-07-31T02:22:39.731Z,149163.98
2018-07-31T02:25:10.808Z,149167.72
2018-07-31T02:27:41.932Z,149159.00
2018-07-31T02:30:18.547Z,149182.69
2018-07-31T02:32:49.867Z,149148.97
2018-07-31T02:35:20.867Z,149150.22
2018-07-31T02:37:52.216Z,149147.73
2018-07-31T02:40:23.266Z,149163.98
2018-07-31T02:42:54.273Z,149180.19
2018-07-31T02:45:25.366Z,149171.47
2018-07-31T02:47:56.506Z,149193.91
2018-07-31T02:50:28.376Z,149206.41
2018-07-31T02:53:01.114Z,149183.94
2018-07-31T02:55:32.175Z,149190.16
2018-07-31T02:58:03.188Z,149167.72
2018-07-31T03:00:34.340Z,149148.97
2018-07-31T03:03:05.421Z,149136.52
2018-07-31T03:05:37.309Z,149094.03
2018-07-31T03:08:08.579Z,149061.64
2018-07-31T03:10:39.803Z,149064.13
2018-07-31T03:13:10.981Z,149075.34
2018-07-31T03:15:44.823Z,149071.61
2018-07-31T03:18:16.803Z,149126.53
2018-07-31T03:20:48.957Z,149145.23
2018-07-31T03:23:20.887Z,149168.97
2018-07-31T03:25:52.134Z,149267.56
2018-07-31T03:28:24.343Z,149387.42
2018-07-31T03:30:55.408Z,149476.09
2018-07-31T03:33:26.607Z,149544.86
2018-07-31T03:35:57.844Z,149572.31
2018-07-31T03:38:28.984Z,149623.53
2018-07-31T03:41:00.106Z,149707.31
2018-07-31T03:43:31.311Z,149729.83
2018-07-31T03:46:03.278Z,149761.03
2018-07-31T03:48:35.448Z,149827.31
2018-07-31T03:51:06.946Z,149918.63
2018-07-31T03:53:39.713Z,149976.14
2018-07-31T03:56:10.954Z,150173.81
2018-07-31T03:58:42.732Z,150312.78
2018-07-31T04:01:13.775Z,150528.23
2018-07-31T04:03:44.917Z,150679.83
2018-07-31T04:06:15.853Z,150698.61
2018-07-31T04:08:47.931Z,150974.44
2018-07-31T04:11:19.297Z,151040.87
2018-07-31T04:13:50.283Z,151034.61
2018-07-31T04:16:21.364Z,150998.23
2018-07-31T04:18:52.675Z,151141.23
2018-07-31T04:21:23.900Z,151177.63
2018-07-31T04:23:55.148Z,151010.81
2018-07-31T04:26:26.256Z,151092.33
2018-07-31T04:28:57.339Z,150998.23
2018-07-31T04:31:28.521Z,150928.00
2018-07-31T04:33:59.635Z,150920.48
2018-07-31T04:36:30.802Z,150953.09
2018-07-31T04:39:01.885Z,151020.83
2018-07-31T04:41:33.484Z,151091.08
2018-07-31T04:44:04.718Z,151210.25
2018-07-31T04:46:35.835Z,151375.94
2018-07-31T04:49:06.813Z,151300.62
2018-07-31T04:51:37.825Z,151467.56
2018-07-31T04:54:08.916Z,151092.33
2018-07-31T04:56:40.142Z,151113.67
2018-07-31T04:59:11.623Z,150945.59
2018-07-31T05:01:42.568Z,151079.75
2018-07-31T05:04:13.799Z,151180.13
2018-07-31T05:06:44.823Z,151262.98
2018-07-31T05:09:15.867Z,151365.92
2018-07-31T05:11:46.889Z,151436.22
2018-07-31T05:14:17.914Z,151769.09
2018-07-31T05:16:48.798Z,151747.67
2018-07-31T05:19:19.884Z,151821.84
2018-07-31T05:21:51.310Z,151748.92
2018-07-31T05:24:22.571Z,151996.52
2018-07-31T05:26:53.687Z,152099.66
2018-07-31T05:29:24.627Z,152119.75
2018-07-31T05:31:55.548Z,152230.44
2018-07-31T05:34:26.653Z,151913.62
2018-07-31T05:36:58.927Z,152127.30
2018-07-31T05:39:30.897Z,151853.22
2018-07-31T05:42:02.474Z,151856.98
2018-07-31T05:44:33.477Z,151882.14
2018-07-31T05:47:04.490Z,151536.69
2018-07-31T05:49:35.843Z,151515.31
2018-07-31T05:52:07.358Z,151653.47
2018-07-31T05:54:39.102Z,151378.45
2018-07-31T05:57:10.670Z,151301.89
2018-07-31T05:59:42.185Z,151205.25
2018-07-31T06:02:13.492Z,151191.41
2018-07-31T06:04:44.646Z,151109.92
2018-07-31T06:07:16.535Z,151069.73
2018-07-31T06:09:47.920Z,151129.97
2018-07-31T06:12:19.160Z,151094.83
2018-07-31T06:14:50.381Z,151305.66
2018-07-31T06:17:22.607Z,151298.13
2018-07-31T06:19:53.894Z,151195.22
2018-07-31T06:22:25.117Z,151104.91
2018-07-31T06:25:05.828Z,151226.55
2018-07-31T06:27:38.335Z,151300.62
2018-07-31T06:30:12.345Z,151171.36
2018-07-31T06:32:44.139Z,151019.58
2018-07-31T06:35:15.397Z,151065.97
2018-07-31T06:37:47.703Z,151301.89
2018-07-31T06:40:20.484Z,151432.45
2018-07-31T06:42:51.829Z,151363.36
2018-07-31T06:45:23.715Z,151373.44
2018-07-31T06:47:54.911Z,151344.56
2018-07-31T06:50:26.005Z,151234.11
2018-07-31T06:52:58.144Z,151399.81
2018-07-31T06:55:29.236Z,151559.25
2018-07-31T06:58:00.617Z,151468.81
2018-07-31T07:00:31.999Z,151539.19
2018-07-31T07:03:04.624Z,151764.03
2018-07-31T07:05:36.697Z,152029.25
2018-07-31T07:08:07.989Z,152099.66
2018-07-31T07:10:39.172Z,152251.83
2018-07-31T07:13:12.172Z,152449.38
2018-07-31T07:15:43.758Z,152118.50
2018-07-31T07:18:16.932Z,152328.56
2018-07-31T07:20:48.358Z,152370.06
2018-07-31T07:23:20.097Z,152017.91
2018-07-31T07:25:52.753Z,151794.19
2018-07-31T07:28:24.007Z,151628.34
2018-07-31T07:30:55.076Z,151547.97
2018-07-31T07:33:26.237Z,151181.39
2018-07-31T07:35:57.671Z,151141.23
2018-07-31T07:38:28.806Z,151386.02
2018-07-31T07:40:59.948Z,151392.28
2018-07-31T07:43:31.376Z,151124.95
2018-07-31T07:46:02.652Z,151170.11
2018-07-31T07:48:33.726Z,151313.17
2018-07-31T07:51:05.538Z,151328.22
2018-07-31T07:53:36.565Z,151221.53
2018-07-31T07:56:07.707Z,151160.08
2018-07-31T07:58:38.791Z,151241.69
2018-07-31T08:01:09.867Z,151433.72
2018-07-31T08:03:41.082Z,151389.78
2018-07-31T08:06:12.690Z,151343.30
2018-07-31T08:08:44.075Z,151369.67
2018-07-31T08:11:15.153Z,151335.78
2018-07-31T08:13:46.221Z,151343.30
2018-07-31T08:16:17.360Z,151393.55
2018-07-31T08:18:48.680Z,151372.19
2018-07-31T08:21:20.474Z,151398.56
2018-07-31T08:23:55.279Z,151368.42
2018-07-31T08:26:28.477Z,151275.52
2018-07-31T08:28:59.544Z,151304.39
2018-07-31T08:31:31.540Z,151465.06
2018-07-31T08:34:03.344Z,151490.19
2018-07-31T08:36:34.633Z,151411.09
2018-07-31T08:39:07.398Z,151525.39
2018-07-31T08:41:38.905Z,151579.37
2018-07-31T08:44:10.124Z,151583.14
2018-07-31T08:46:41.213Z,151595.69
2018-07-31T08:49:12.292Z,151596.94
2018-07-31T08:51:43.379Z,151532.92
2018-07-31T08:54:16.840Z,151581.88
2018-07-31T08:56:50.233Z,151639.69
2018-07-31T08:59:21.371Z,151645.95
2018-07-31T09:01:55.544Z,151678.63
2018-07-31T09:04:26.634Z,151686.14
2018-07-31T09:06:58.067Z,151658.50
2018-07-31T09:09:29.126Z,151613.23
2018-07-31T09:12:00.137Z,151542.95
2018-07-31T09:14:31.374Z,151603.20
2018-07-31T09:17:02.613Z,151668.58
2018-07-31T09:19:33.584Z,151642.19
2018-07-31T09:22:05.782Z,151678.63
2018-07-31T09:24:36.901Z,151672.34
2018-07-31T09:27:08.193Z,151698.69
2018-07-31T09:29:39.361Z,151613.23
2018-07-31T09:32:10.442Z,151643.44
2018-07-31T09:34:47.954Z,151573.09
2018-07-31T09:37:19.736Z,151496.45
2018-07-31T09:39:50.856Z,151552.98
2018-07-31T09:42:24.585Z,151485.17
2018-07-31T09:44:56.006Z,151561.77
2018-07-31T09:47:29.576Z,151552.98
2018-07-31T09:50:01.892Z,151574.36
2018-07-31T09:52:33.096Z,151546.72
2018-07-31T09:55:05.132Z,151417.38
2018-07-31T09:57:38.779Z,151505.28
2018-07-31T10:00:10.074Z,151458.78
2018-07-31T10:02:41.150Z,151537.94
2018-07-31T10:05:12.279Z,151546.72
2018-07-31T10:07:43.374Z,151547.97
2018-07-31T10:10:15.109Z,151526.66
2018-07-31T10:12:46.047Z,151524.09
2018-07-31T10:15:17.464Z,151515.31
2018-07-31T10:17:48.737Z,151393.55
2018-07-31T10:20:19.619Z,151369.67
2018-07-31T10:22:51.628Z,151428.66
2018-07-31T10:25:22.984Z,151309.41
2018-07-31T10:27:54.026Z,151380.95
2018-07-31T10:30:25.030Z,151391.03
2018-07-31T10:32:56.031Z,151339.55
2018-07-31T10:35:27.608Z,151259.22
2018-07-31T10:37:58.789Z,151291.86
2018-07-31T10:40:29.885Z,151310.66
2018-07-31T10:43:01.028Z,151383.52
2018-07-31T10:45:32.087Z,151460.05
2018-07-31T10:48:04.163Z,151492.69
2018-07-31T10:50:35.319Z,151417.38
2018-07-31T10:53:06.313Z,151286.80
2018-07-31T10:55:37.704Z,151195.22
2018-07-31T10:58:08.676Z,151201.48
2018-07-31T11:00:39.990Z,151309.41
2018-07-31T11:03:11.409Z,151370.94
2018-07-31T11:05:43.183Z,151422.38
2018-07-31T11:08:14.603Z,151478.91
2018-07-31T11:10:46.522Z,151500.22
2018-07-31T11:13:17.553Z,151445.00
2018-07-31T11:15:52.646Z,151535.44
2018-07-31T11:18:23.741Z,151633.36
2018-07-31T11:20:55.109Z,151649.72
2018-07-31T11:23:26.196Z,151565.53
2018-07-31T11:25:58.019Z,151580.62
2018-07-31T11:28:31.660Z,151526.66
2018-07-31T11:31:03.772Z,151530.41
2018-07-31T11:33:35.101Z,151475.09
2018-07-31T11:36:06.444Z,151511.56
2018-07-31T11:38:37.626Z,151556.75
2018-07-31T11:41:08.624Z,151465.06
2018-07-31T11:43:40.096Z,151427.39
2018-07-31T11:46:11.977Z,151411.09
2018-07-31T11:48:43.089Z,151321.94
2018-07-31T11:51:14.035Z,151137.48
2018-07-31T11:53:45.056Z,151028.34
2018-07-31T11:56:16.106Z,151148.81
2018-07-31T11:58:49.005Z,151224.03
2018-07-31T12:01:19.964Z,151306.91
2018-07-31T12:03:51.160Z,151337.03
2018-07-31T12:06:22.492Z,151340.80
2018-07-31T12:08:53.894Z,151365.92
2018-07-31T12:11:26.479Z,151387.28
2018-07-31T12:13:58.265Z,151419.87
2018-07-31T12:16:29.749Z,151289.36
2018-07-31T12:19:02.633Z,151324.45
2018-07-31T12:21:34.757Z,151335.78
2018-07-31T12:24:05.782Z,151089.81
2018-07-31T12:26:37.068Z,151182.63
2018-07-31T12:29:08.201Z,151137.48
2018-07-31T12:31:39.569Z,151257.97
2018-07-31T12:34:11.520Z,151358.34
2018-07-31T12:36:45.739Z,151268.00
2018-07-31T12:39:16.923Z,151315.67
2018-07-31T12:41:49.882Z,151373.44
2018-07-31T12:44:21.988Z,151372.19
2018-07-31T12:46:53.449Z,151324.45
2018-07-31T12:49:24.671Z,151319.44
2018-07-31T12:51:55.612Z,151349.56
2018-07-31T12:54:26.731Z,151329.47
2018-07-31T12:56:58.604Z,151296.88
2018-07-31T12:59:31.747Z,151281.78
2018-07-31T13:02:02.617Z,151211.50
2018-07-31T13:04:33.770Z,151221.53
2018-07-31T13:07:04.892Z,151196.47
2018-07-31T13:09:37.334Z,151198.97
2018-07-31T13:12:08.390Z,151216.52
2018-07-31T13:14:39.886Z,151205.25
2018-07-31T13:17:11.090Z,151101.16
2018-07-31T13:19:42.772Z,151168.84
2018-07-31T13:22:14.736Z,151088.56
2018-07-31T13:24:45.706Z,151064.72
2018-07-31T13:27:16.616Z,151033.36
2018-07-31T13:29:48.750Z,150879.12
2018-07-31T13:32:20.733Z,150924.25
2018-07-31T13:34:52.045Z,150926.75
2018-07-31T13:37:23.067Z,151017.06
2018-07-31T13:39:54.800Z,151030.84
2018-07-31T13:42:25.588Z,151096.09
2018-07-31T13:44:57.131Z,151113.67
2018-07-31T13:47:28.485Z,151093.58
2018-07-31T13:49:59.188Z,151044.63
2018-07-31T13:52:30.206Z,151048.38
2018-07-31T13:55:02.197Z,151055.95
2018-07-31T13:57:32.960Z,151088.56
2018-07-31T14:00:05.639Z,151127.45
2018-07-31T14:02:36.538Z,151104.91
2018-07-31T14:05:07.563Z,151096.09
2018-07-31T14:07:38.340Z,151091.08
2018-07-31T14:10:09.085Z,151146.30
2018-07-31T14:12:39.908Z,151114.94
2018-07-31T14:15:12.070Z,151143.75
2018-07-31T14:17:43.335Z,151131.22
2018-07-31T14:20:15.273Z,151166.34
2018-07-31T14:22:46.290Z,151190.16
2018-07-31T14:25:17.470Z,151217.78
2018-07-31T14:27:48.244Z,151156.31
2018-07-31T14:30:19.091Z,151156.31
2018-07-31T14:32:50.226Z,151088.56
2018-07-31T14:35:21.192Z,151084.77
2018-07-31T14:37:52.515Z,151073.48
2018-07-31T14:40:24.219Z,151082.25
2018-07-31T14:42:54.897Z,150916.73
2018-07-31T14:45:25.587Z,150970.67
2018-07-31T14:47:56.603Z,151025.84
2018-07-31T14:50:27.649Z,151029.59
2018-07-31T14:52:58.798Z,151040.87
2018-07-31T14:55:29.886Z,151003.30
2018-07-31T14:58:00.650Z,150931.75
2018-07-31T15:00:32.975Z,150925.50
2018-07-31T15:03:03.749Z,150875.36
2018-07-31T15:05:34.844Z,150855.28
2018-07-31T15:08:05.671Z,150890.39
2018-07-31T15:10:36.555Z,150890.39
2018-07-31T15:13:07.335Z,150840.25
2018-07-31T15:15:38.220Z,150920.48
2018-07-31T15:18:09.154Z,150896.66
2018-07-31T15:20:46.896Z,150869.09
2018-07-31T15:23:24.680Z,150822.72
2018-07-31T15:25:56.262Z,150775.06
2018-07-31T15:28:27.137Z,150807.66
2018-07-31T15:30:58.496Z,150783.81
2018-07-31T15:33:30.188Z,150820.22
2018-07-31T15:36:01.106Z,150820.22
2018-07-31T15:38:31.880Z,150828.98
2018-07-31T15:41:02.640Z,150798.89
2018-07-31T15:43:34.497Z,150860.34
2018-07-31T15:46:05.419Z,150875.36
2018-07-31T15:48:36.185Z,150832.75
2018-07-31T15:51:07.911Z,150879.12
2018-07-31T15:53:38.804Z,150923.00
2018-07-31T15:56:10.392Z,150945.59
2018-07-31T15:58:41.558Z,150941.83
2018-07-31T16:01:13.688Z,150950.59
2018-07-31T16:03:45.373Z,150881.63
2018-07-31T16:06:16.414Z,150807.66
2018-07-31T16:08:48.234Z,150805.16
2018-07-31T16:11:19.143Z,150820.22
2018-07-31T16:13:49.960Z,150828.98
2018-07-31T16:16:21.071Z,150834.00
2018-07-31T16:18:52.445Z,150806.41
2018-07-31T16:21:23.137Z,150811.47
2018-07-31T16:23:59.474Z,150823.98
2018-07-31T16:26:30.264Z,150823.98
2018-07-31T16:29:02.171Z,150791.33
2018-07-31T16:31:32.931Z,150795.14
2018-07-31T16:34:04.223Z,150787.58
2018-07-31T16:36:34.935Z,150758.73
2018-07-31T16:39:08.298Z,150723.69
2018-07-31T16:41:39.283Z,150696.11
2018-07-31T16:44:16.770Z,150667.28
2018-07-31T16:46:47.636Z,150659.77
2018-07-31T16:49:19.005Z,150570.78
2018-07-31T16:51:49.846Z,150587.09
2018-07-31T16:54:20.935Z,150590.84
2018-07-31T16:56:52.657Z,150584.59
2018-07-31T16:59:23.377Z,150504.42
2018-07-31T17:01:54.231Z,150438.03
2018-07-31T17:04:25.131Z,150401.70
2018-07-31T17:06:55.840Z,150429.22
2018-07-31T17:09:26.562Z,150426.72
2018-07-31T17:11:57.685Z,150424.22
2018-07-31T17:14:28.451Z,150392.95
2018-07-31T17:16:59.237Z,150375.39
2018-07-31T17:19:30.075Z,150329.03
2018-07-31T17:22:00.846Z,150287.72
2018-07-31T17:24:31.831Z,150256.47
2018-07-31T17:27:02.552Z,150203.91
2018-07-31T17:29:33.224Z,150177.62
2018-07-31T17:32:04.048Z,150186.37
2018-07-31T17:34:35.959Z,150181.36
2018-07-31T17:37:07.945Z,150171.31
2018-07-31T17:39:44.363Z,150157.56
2018-07-31T17:42:15.471Z,150147.56
2018-07-31T17:44:48.026Z,150127.53
2018-07-31T17:47:18.895Z,150115.03
2018-07-31T17:49:49.761Z,150093.73
2018-07-31T17:52:23.976Z,150071.25
2018-07-31T17:54:54.747Z,150083.73
2018-07-31T17:57:25.626Z,150087.48
2018-07-31T17:59:57.175Z,150083.73
2018-07-31T18:02:30.520Z,150065.00
2018-07-31T18:05:03.011Z,150041.20
2018-07-31T18:07:33.824Z,150012.47
2018-07-31T18:10:05.055Z,150029.97
2018-07-31T18:12:36.413Z,150021.22
2018-07-31T18:15:07.824Z,149993.63
2018-07-31T18:17:40.290Z,149986.13
2018-07-31T18:20:11.930Z,149983.63
2018-07-31T18:22:42.889Z,149964.91
2018-07-31T18:25:16.919Z,149956.11
2018-07-31T18:27:48.798Z,149971.14
2018-07-31T18:30:19.836Z,149923.62
2018-07-31T18:32:51.543Z,149923.62
2018-07-31T18:35:25.232Z,149898.59
2018-07-31T18:37:56.713Z,149912.39
2018-07-31T18:40:27.818Z,149883.61
2018-07-31T18:42:58.691Z,149853.59
2018-07-31T18:45:29.802Z,149823.56
2018-07-31T18:48:00.907Z,149796.05
2018-07-31T18:50:32.991Z,149794.80
2018-07-31T18:53:05.561Z,149781.06
2018-07-31T18:55:36.848Z,149773.58
2018-07-31T18:58:07.973Z,149757.28
2018-07-31T19:00:40.263Z,149761.03
2018-07-31T19:03:12.270Z,149764.78
2018-07-31T19:05:44.280Z,149762.28
2018-07-31T19:08:16.876Z,149743.56
2018-07-31T19:10:48.516Z,149721.08
2018-07-31T19:13:19.455Z,149723.58
2018-07-31T19:15:51.101Z,149701.06
2018-07-31T19:18:22.486Z,149694.81
2018-07-31T19:20:54.413Z,149681.09
2018-07-31T19:23:25.366Z,149667.27
2018-07-31T19:25:56.635Z,149662.27
2018-07-31T19:28:27.639Z,149664.77
2018-07-31T19:30:59.365Z,149658.53
2018-07-31T19:33:31.217Z,149637.31
2018-07-31T19:36:05.670Z,149622.28
2018-07-31T19:38:37.589Z,149603.56
2018-07-31T19:41:08.787Z,149612.30
2018-07-31T19:43:39.690Z,149618.53
2018-07-31T19:46:10.689Z,149583.59
2018-07-31T19:48:42.985Z,149581.09
2018-07-31T19:51:15.444Z,149573.56
2018-07-31T19:53:47.254Z,149577.34
2018-07-31T19:56:18.381Z,149609.80
2018-07-31T19:58:49.275Z,149626.08
2018-07-31T20:01:20.659Z,149631.06
2018-07-31T20:03:51.564Z,149661.03
2018-07-31T20:06:23.560Z,149682.34
2018-07-31T20:08:56.525Z,149679.84
2018-07-31T20:11:28.361Z,149654.78
2018-07-31T20:13:59.831Z,149631.06
2018-07-31T20:16:31.942Z,149603.56
2018-07-31T20:19:04.755Z,149618.53
2018-07-31T20:21:36.014Z,149638.55
2018-07-31T20:24:07.169Z,149642.30
2018-07-31T20:26:38.366Z,149637.31
2018-07-31T20:29:09.663Z,149663.52
2018-07-31T20:31:41.296Z,149651.03
2018-07-31T20:34:13.473Z,149636.06
2018-07-31T20:36:44.629Z,149623.53
2018-07-31T20:39:16.723Z,149624.83
2018-07-31T20:41:48.017Z,149601.06
2018-07-31T20:44:19.404Z,149583.59
2018-07-31T20:46:50.390Z,149573.56
2018-07-31T20:49:21.247Z,149559.83
2018-07-31T20:51:52.429Z,149542.36
2018-07-31T20:54:23.426Z,149521.11
2018-07-31T20:56:54.522Z,149511.13
2018-07-31T20:59:25.601Z,149533.62
2018-07-31T21:01:56.447Z,149536.13
2018-07-31T21:04:27.703Z,149517.36
2018-07-31T21:06:58.911Z,149503.64
2018-07-31T21:09:30.057Z,149512.38
2018-07-31T21:12:01.920Z,149523.59
2018-07-31T21:14:33.966Z,149521.11
2018-07-31T21:17:04.839Z,149522.34
2018-07-31T21:19:37.493Z,149521.11
2018-07-31T21:22:09.598Z,149506.13
2018-07-31T21:24:41.095Z,149522.34
2018-07-31T21:27:12.121Z,149538.63
2018-07-31T21:29:44.149Z,149539.88
2018-07-31T21:32:16.410Z,149538.63
2018-07-31T21:34:47.915Z,149548.59
2018-07-31T21:37:20.730Z,149571.06
2018-07-31T21:39:52.536Z,149561.08
2018-07-31T21:42:26.024Z,149572.31
2018-07-31T21:44:57.453Z,149553.59
2018-07-31T21:47:31.285Z,149554.84
2018-07-31T21:50:04.058Z,149543.61
2018-07-31T21:52:36.254Z,149544.86
2018-07-31T21:55:07.771Z,149548.59
2018-07-31T22:06:39.159Z,149563.58
2018-07-31T22:09:10.771Z,149567.31
2018-07-31T22:11:42.446Z,149602.31
2018-07-31T22:14:13.479Z,149594.83
2018-07-31T22:16:45.597Z,149591.08
2018-07-31T22:19:18.507Z,149592.33
2018-07-31T22:21:50.130Z,149578.59
2018-07-31T22:24:22.225Z,149597.31
2018-07-31T22:26:54.181Z,149566.06
2018-07-31T22:29:25.620Z,149536.13
2018-07-31T22:31:57.202Z,149488.61
2018-07-31T22:34:28.241Z,149456.12
2018-07-31T22:36:59.595Z,149458.63
2018-07-31T22:39:33.178Z,149443.66
2018-07-31T22:42:07.779Z,149422.41
2018-07-31T22:44:40.857Z,149413.66
2018-07-31T22:47:13.802Z,149399.94
2018-07-31T22:49:46.053Z,149377.44
2018-07-31T22:52:21.200Z,149368.72
2018-07-31T22:54:55.039Z,149350.00
2018-07-31T22:57:27.282Z,149343.77
2018-07-31T22:59:59.081Z,149372.45
2018-07-31T23:02:30.440Z,149357.48
2018-07-31T23:05:04.654Z,149337.48
2018-07-31T23:07:38.573Z,149303.77
2018-07-31T23:10:10.270Z,149296.28
2018-07-31T23:12:41.711Z,149291.25
2018-07-31T23:15:14.786Z,149291.25
2018-07-31T23:17:47.229Z,149281.28
2018-07-31T23:20:19.192Z,149267.56
2018-07-31T23:22:53.207Z,149262.56
2018-07-31T23:25:27.043Z,149256.34
2018-07-31T23:28:00.163Z,149265.06
2018-07-31T23:30:32.945Z,149263.81
2018-07-31T23:33:07.569Z,149240.08
2018-07-31T23:35:42.376Z,149247.61
2018-07-31T23:38:17.517Z,149251.34
2018-07-31T23:40:51.344Z,149238.83
2018-07-31T23:43:24.744Z,149238.83
2018-07-31T23:45:59.026Z,149241.33
2018-07-31T23:48:32.824Z,149247.61
2018-07-31T23:51:08.053Z,149238.83
2018-07-31T23:53:44.040Z,149253.84
2018-07-31T23:56:18.463Z,149237.59
2018-07-31T23:58:52.593Z,149243.81
